sensor_id;sensor_type;location;lat;lon;timestamp;P1;durP1;ratioP1;P2;durP2;ratioP2
15254;SDS011;7730;49.610;11.136;2023-03-21T00:00:29;12.38;;;5.53;;
15254;SDS011;7730;49.610;11.136;2023-03-21T00:02:57;11.45;;;5.10;;
15254;SDS011;7730;49.610;11.136;2023-03-21T00:05:24;12.32;;;5.45;;
15254;SDS011;7730;49.610;11.136;2023-03-21T00:07:52;10.88;;;4.90;;
15254;SDS011;7730;49.610;11.136;2023-03-21T00:10:19;12.30;;;5.30;;
15254;SDS011;7730;49.610;11.136;2023-03-21T00:12:46;11.98;;;5.07;;
15254;SDS011;7730;49.610;11.136;2023-03-21T00:15:19;11.65;;;5.32;;
15254;SDS011;7730;49.610;11.136;2023-03-21T00:17:46;10.93;;;4.80;;
15254;SDS011;7730;49.610;11.136;2023-03-21T00:20:16;12.15;;;5.65;;
15254;SDS011;7730;49.610;11.136;2023-03-21T00:22:43;12.93;;;5.95;;
15254;SDS011;7730;49.610;11.136;2023-03-21T00:25:10;11.35;;;5.93;;
15254;SDS011;7730;49.610;11.136;2023-03-21T00:27:37;11.98;;;6.10;;
15254;SDS011;7730;49.610;11.136;2023-03-21T00:30:05;13.02;;;6.65;;
15254;SDS011;7730;49.610;11.136;2023-03-21T00:32:32;14.15;;;6.50;;
15254;SDS011;7730;49.610;11.136;2023-03-21T00:34:59;12.32;;;6.30;;
15254;SDS011;7730;49.610;11.136;2023-03-21T00:37:27;12.65;;;6.15;;
15254;SDS011;7730;49.610;11.136;2023-03-21T00:39:54;12.38;;;6.47;;
15254;SDS011;7730;49.610;11.136;2023-03-21T00:42:21;12.80;;;6.25;;
15254;SDS011;7730;49.610;11.136;2023-03-21T00:44:48;12.43;;;6.50;;
15254;SDS011;7730;49.610;11.136;2023-03-21T00:47:15;12.85;;;6.10;;
15254;SDS011;7730;49.610;11.136;2023-03-21T00:49:42;12.10;;;6.10;;
15254;SDS011;7730;49.610;11.136;2023-03-21T00:52:09;12.75;;;6.20;;
15254;SDS011;7730;49.610;11.136;2023-03-21T00:54:38;14.25;;;6.43;;
15254;SDS011;7730;49.610;11.136;2023-03-21T00:57:05;13.60;;;6.38;;
15254;SDS011;7730;49.610;11.136;2023-03-21T00:59:32;13.07;;;6.57;;
15254;SDS011;7730;49.610;11.136;2023-03-21T01:01:59;12.85;;;6.80;;
15254;SDS011;7730;49.610;11.136;2023-03-21T01:04:26;14.43;;;6.55;;
15254;SDS011;7730;49.610;11.136;2023-03-21T01:06:53;13.02;;;6.50;;
15254;SDS011;7730;49.610;11.136;2023-03-21T01:09:21;12.32;;;6.50;;
15254;SDS011;7730;49.610;11.136;2023-03-21T01:11:51;12.90;;;6.50;;
15254;SDS011;7730;49.610;11.136;2023-03-21T01:14:18;13.50;;;6.50;;
15254;SDS011;7730;49.610;11.136;2023-03-21T01:16:46;13.23;;;6.45;;
15254;SDS011;7730;49.610;11.136;2023-03-21T01:19:14;14.45;;;6.80;;
15254;SDS011;7730;49.610;11.136;2023-03-21T01:21:41;13.70;;;6.60;;
15254;SDS011;7730;49.610;11.136;2023-03-21T01:24:09;12.77;;;6.47;;
15254;SDS011;7730;49.610;11.136;2023-03-21T01:26:36;13.13;;;6.80;;
15254;SDS011;7730;49.610;11.136;2023-03-21T01:29:04;13.85;;;7.22;;
15254;SDS011;7730;49.610;11.136;2023-03-21T01:31:31;14.32;;;6.75;;
15254;SDS011;7730;49.610;11.136;2023-03-21T01:33:58;13.43;;;6.72;;
15254;SDS011;7730;49.610;11.136;2023-03-21T01:36:26;13.13;;;6.47;;
15254;SDS011;7730;49.610;11.136;2023-03-21T01:38:53;14.05;;;6.40;;
15254;SDS011;7730;49.610;11.136;2023-03-21T01:41:22;13.25;;;6.45;;
15254;SDS011;7730;49.610;11.136;2023-03-21T01:43:50;12.63;;;6.30;;
15254;SDS011;7730;49.610;11.136;2023-03-21T01:46:25;12.27;;;6.20;;
15254;SDS011;7730;49.610;11.136;2023-03-21T01:48:54;12.07;;;5.90;;
15254;SDS011;7730;49.610;11.136;2023-03-21T01:51:23;13.38;;;6.20;;
15254;SDS011;7730;49.610;11.136;2023-03-21T01:53:51;12.35;;;6.30;;
15254;SDS011;7730;49.610;11.136;2023-03-21T01:56:21;12.95;;;6.40;;
15254;SDS011;7730;49.610;11.136;2023-03-21T01:58:49;12.50;;;6.07;;
15254;SDS011;7730;49.610;11.136;2023-03-21T02:01:16;17.75;;;6.35;;
15254;SDS011;7730;49.610;11.136;2023-03-21T02:03:48;14.93;;;6.00;;
15254;SDS011;7730;49.610;11.136;2023-03-21T02:06:17;13.93;;;5.90;;
15254;SDS011;7730;49.610;11.136;2023-03-21T02:08:45;15.65;;;6.40;;
15254;SDS011;7730;49.610;11.136;2023-03-21T02:11:13;11.95;;;5.47;;
15254;SDS011;7730;49.610;11.136;2023-03-21T02:13:40;14.38;;;6.13;;
15254;SDS011;7730;49.610;11.136;2023-03-21T02:16:08;13.73;;;6.20;;
15254;SDS011;7730;49.610;11.136;2023-03-21T02:18:40;12.57;;;5.65;;
15254;SDS011;7730;49.610;11.136;2023-03-21T02:21:25;12.80;;;5.72;;
15254;SDS011;7730;49.610;11.136;2023-03-21T02:24:10;12.50;;;5.82;;
15254;SDS011;7730;49.610;11.136;2023-03-21T02:26:49;12.95;;;5.90;;
15254;SDS011;7730;49.610;11.136;2023-03-21T02:29:28;12.50;;;5.38;;
15254;SDS011;7730;49.610;11.136;2023-03-21T02:31:59;11.23;;;5.38;;
15254;SDS011;7730;49.610;11.136;2023-03-21T02:34:37;13.13;;;5.57;;
15254;SDS011;7730;49.610;11.136;2023-03-21T02:37:14;11.50;;;5.85;;
15254;SDS011;7730;49.610;11.136;2023-03-21T02:39:47;12.47;;;5.70;;
15254;SDS011;7730;49.610;11.136;2023-03-21T02:42:18;10.77;;;4.97;;
15254;SDS011;7730;49.610;11.136;2023-03-21T02:44:47;11.63;;;5.50;;
15254;SDS011;7730;49.610;11.136;2023-03-21T02:47:17;11.57;;;4.93;;
15254;SDS011;7730;49.610;11.136;2023-03-21T02:49:46;11.00;;;4.65;;
15254;SDS011;7730;49.610;11.136;2023-03-21T02:52:19;10.30;;;4.60;;
15254;SDS011;7730;49.610;11.136;2023-03-21T02:54:46;10.05;;;4.47;;
15254;SDS011;7730;49.610;11.136;2023-03-21T02:57:16;10.73;;;5.05;;
15254;SDS011;7730;49.610;11.136;2023-03-21T02:59:44;11.40;;;5.30;;
15254;SDS011;7730;49.610;11.136;2023-03-21T03:02:11;11.10;;;5.15;;
15254;SDS011;7730;49.610;11.136;2023-03-21T03:04:38;11.18;;;5.07;;
15254;SDS011;7730;49.610;11.136;2023-03-21T03:07:13;9.95;;;4.57;;
15254;SDS011;7730;49.610;11.136;2023-03-21T03:09:56;8.80;;;4.13;;
15254;SDS011;7730;49.610;11.136;2023-03-21T03:12:26;9.32;;;4.35;;
15254;SDS011;7730;49.610;11.136;2023-03-21T03:14:59;9.02;;;4.40;;
15254;SDS011;7730;49.610;11.136;2023-03-21T03:17:34;9.27;;;4.30;;
15254;SDS011;7730;49.610;11.136;2023-03-21T03:20:14;11.00;;;4.60;;
15254;SDS011;7730;49.610;11.136;2023-03-21T03:22:45;10.32;;;4.43;;
15254;SDS011;7730;49.610;11.136;2023-03-21T03:25:16;9.07;;;4.22;;
15254;SDS011;7730;49.610;11.136;2023-03-21T03:27:46;10.02;;;4.57;;
15254;SDS011;7730;49.610;11.136;2023-03-21T03:30:15;10.18;;;4.53;;
15254;SDS011;7730;49.610;11.136;2023-03-21T03:32:44;10.93;;;4.60;;
15254;SDS011;7730;49.610;11.136;2023-03-21T03:35:13;10.65;;;4.47;;
15254;SDS011;7730;49.610;11.136;2023-03-21T03:37:41;10.30;;;4.28;;
15254;SDS011;7730;49.610;11.136;2023-03-21T03:40:10;9.48;;;4.40;;
15254;SDS011;7730;49.610;11.136;2023-03-21T03:42:44;10.10;;;4.40;;
15254;SDS011;7730;49.610;11.136;2023-03-21T03:45:12;10.45;;;4.82;;
15254;SDS011;7730;49.610;11.136;2023-03-21T03:47:39;11.80;;;4.75;;
15254;SDS011;7730;49.610;11.136;2023-03-21T03:50:09;10.63;;;4.90;;
15254;SDS011;7730;49.610;11.136;2023-03-21T03:52:41;10.38;;;4.70;;
15254;SDS011;7730;49.610;11.136;2023-03-21T03:55:09;10.55;;;4.65;;
15254;SDS011;7730;49.610;11.136;2023-03-21T03:57:37;10.73;;;4.70;;
15254;SDS011;7730;49.610;11.136;2023-03-21T04:00:07;10.55;;;4.82;;
15254;SDS011;7730;49.610;11.136;2023-03-21T04:02:36;9.52;;;4.45;;
15254;SDS011;7730;49.610;11.136;2023-03-21T04:05:04;11.07;;;4.50;;
15254;SDS011;7730;49.610;11.136;2023-03-21T04:07:31;8.32;;;4.00;;
15254;SDS011;7730;49.610;11.136;2023-03-21T04:09:58;9.98;;;4.18;;
15254;SDS011;7730;49.610;11.136;2023-03-21T04:12:25;11.45;;;4.55;;
15254;SDS011;7730;49.610;11.136;2023-03-21T04:14:52;12.20;;;4.63;;
15254;SDS011;7730;49.610;11.136;2023-03-21T04:17:20;9.30;;;4.38;;
15254;SDS011;7730;49.610;11.136;2023-03-21T04:19:47;9.23;;;4.18;;
15254;SDS011;7730;49.610;11.136;2023-03-21T04:22:15;10.27;;;4.38;;
15254;SDS011;7730;49.610;11.136;2023-03-21T04:24:42;8.55;;;4.28;;
15254;SDS011;7730;49.610;11.136;2023-03-21T04:27:10;12.45;;;4.40;;
15254;SDS011;7730;49.610;11.136;2023-03-21T04:29:37;9.40;;;4.30;;
15254;SDS011;7730;49.610;11.136;2023-03-21T04:32:04;9.18;;;3.80;;
15254;SDS011;7730;49.610;11.136;2023-03-21T04:34:45;9.60;;;3.58;;
15254;SDS011;7730;49.610;11.136;2023-03-21T04:37:14;10.13;;;3.70;;
15254;SDS011;7730;49.610;11.136;2023-03-21T04:39:41;6.18;;;3.25;;
15254;SDS011;7730;49.610;11.136;2023-03-21T04:42:08;9.88;;;3.80;;
15254;SDS011;7730;49.610;11.136;2023-03-21T04:44:35;8.20;;;3.67;;
15254;SDS011;7730;49.610;11.136;2023-03-21T04:47:02;7.80;;;3.60;;
15254;SDS011;7730;49.610;11.136;2023-03-21T04:49:29;8.88;;;3.72;;
15254;SDS011;7730;49.610;11.136;2023-03-21T04:51:58;7.35;;;3.60;;
15254;SDS011;7730;49.610;11.136;2023-03-21T04:54:25;8.85;;;3.60;;
15254;SDS011;7730;49.610;11.136;2023-03-21T04:56:52;8.40;;;3.67;;
15254;SDS011;7730;49.610;11.136;2023-03-21T04:59:19;8.98;;;3.72;;
15254;SDS011;7730;49.610;11.136;2023-03-21T05:01:46;7.75;;;4.00;;
15254;SDS011;7730;49.610;11.136;2023-03-21T05:04:14;8.13;;;3.90;;
15254;SDS011;7730;49.610;11.136;2023-03-21T05:06:41;9.38;;;3.72;;
15254;SDS011;7730;49.610;11.136;2023-03-21T05:09:09;7.90;;;3.67;;
15254;SDS011;7730;49.610;11.136;2023-03-21T05:11:37;10.18;;;3.85;;
15254;SDS011;7730;49.610;11.136;2023-03-21T05:14:05;9.88;;;4.13;;
15254;SDS011;7730;49.610;11.136;2023-03-21T05:16:32;8.82;;;4.28;;
15254;SDS011;7730;49.610;11.136;2023-03-21T05:19:00;9.80;;;4.28;;
15254;SDS011;7730;49.610;11.136;2023-03-21T05:21:29;11.35;;;4.20;;
15254;SDS011;7730;49.610;11.136;2023-03-21T05:23:58;10.38;;;4.15;;
15254;SDS011;7730;49.610;11.136;2023-03-21T05:26:28;9.13;;;3.90;;
15254;SDS011;7730;49.610;11.136;2023-03-21T05:28:55;10.10;;;4.10;;
15254;SDS011;7730;49.610;11.136;2023-03-21T05:31:22;9.55;;;4.20;;
15254;SDS011;7730;49.610;11.136;2023-03-21T05:33:49;9.10;;;4.00;;
15254;SDS011;7730;49.610;11.136;2023-03-21T05:36:17;11.18;;;4.20;;
15254;SDS011;7730;49.610;11.136;2023-03-21T05:38:44;11.25;;;4.00;;
15254;SDS011;7730;49.610;11.136;2023-03-21T05:41:11;11.30;;;4.53;;
15254;SDS011;7730;49.610;11.136;2023-03-21T05:43:40;12.63;;;4.43;;
15254;SDS011;7730;49.610;11.136;2023-03-21T05:46:07;13.95;;;4.88;;
15254;SDS011;7730;49.610;11.136;2023-03-21T05:48:34;12.32;;;5.15;;
15254;SDS011;7730;49.610;11.136;2023-03-21T05:51:02;11.43;;;4.57;;
15254;SDS011;7730;49.610;11.136;2023-03-21T05:53:29;10.63;;;4.40;;
15254;SDS011;7730;49.610;11.136;2023-03-21T05:55:56;10.95;;;4.72;;
15254;SDS011;7730;49.610;11.136;2023-03-21T05:58:23;13.85;;;4.97;;
15254;SDS011;7730;49.610;11.136;2023-03-21T06:00:52;10.10;;;4.60;;
15254;SDS011;7730;49.610;11.136;2023-03-21T06:03:19;11.00;;;4.80;;
15254;SDS011;7730;49.610;11.136;2023-03-21T06:05:46;10.65;;;4.57;;
15254;SDS011;7730;49.610;11.136;2023-03-21T06:08:13;12.77;;;4.60;;
15254;SDS011;7730;49.610;11.136;2023-03-21T06:10:40;9.85;;;4.30;;
15254;SDS011;7730;49.610;11.136;2023-03-21T06:13:07;10.80;;;4.88;;
15254;SDS011;7730;49.610;11.136;2023-03-21T06:15:34;11.48;;;5.20;;
15254;SDS011;7730;49.610;11.136;2023-03-21T06:18:03;14.10;;;6.32;;
15254;SDS011;7730;49.610;11.136;2023-03-21T06:20:30;14.70;;;6.78;;
15254;SDS011;7730;49.610;11.136;2023-03-21T06:22:57;17.08;;;9.90;;
15254;SDS011;7730;49.610;11.136;2023-03-21T06:25:24;18.27;;;11.07;;
15254;SDS011;7730;49.610;11.136;2023-03-21T06:27:51;16.65;;;8.05;;
15254;SDS011;7730;49.610;11.136;2023-03-21T06:30:18;10.93;;;4.78;;
15254;SDS011;7730;49.610;11.136;2023-03-21T06:32:45;11.10;;;4.07;;
15254;SDS011;7730;49.610;11.136;2023-03-21T06:35:14;9.65;;;4.10;;
15254;SDS011;7730;49.610;11.136;2023-03-21T06:37:41;11.38;;;4.30;;
15254;SDS011;7730;49.610;11.136;2023-03-21T06:40:10;9.27;;;4.13;;
15254;SDS011;7730;49.610;11.136;2023-03-21T06:42:37;12.23;;;5.30;;
15254;SDS011;7730;49.610;11.136;2023-03-21T06:45:05;9.73;;;4.22;;
15254;SDS011;7730;49.610;11.136;2023-03-21T06:47:32;11.23;;;4.55;;
15254;SDS011;7730;49.610;11.136;2023-03-21T06:49:59;9.18;;;4.05;;
15254;SDS011;7730;49.610;11.136;2023-03-21T06:52:27;11.13;;;4.10;;
15254;SDS011;7730;49.610;11.136;2023-03-21T06:54:54;11.65;;;4.32;;
15254;SDS011;7730;49.610;11.136;2023-03-21T06:57:22;11.45;;;4.00;;
15254;SDS011;7730;49.610;11.136;2023-03-21T06:59:49;9.82;;;4.05;;
15254;SDS011;7730;49.610;11.136;2023-03-21T07:02:16;11.23;;;4.00;;
15254;SDS011;7730;49.610;11.136;2023-03-21T07:04:43;9.38;;;3.85;;
15254;SDS011;7730;49.610;11.136;2023-03-21T07:07:10;9.05;;;3.75;;
15254;SDS011;7730;49.610;11.136;2023-03-21T07:09:38;9.63;;;3.75;;
15254;SDS011;7730;49.610;11.136;2023-03-21T07:12:06;10.85;;;4.18;;
15254;SDS011;7730;49.610;11.136;2023-03-21T07:14:34;10.82;;;4.30;;
15254;SDS011;7730;49.610;11.136;2023-03-21T07:17:01;11.45;;;4.53;;
15254;SDS011;7730;49.610;11.136;2023-03-21T07:19:28;11.70;;;4.70;;
15254;SDS011;7730;49.610;11.136;2023-03-21T07:21:55;11.13;;;4.28;;
15254;SDS011;7730;49.610;11.136;2023-03-21T07:24:22;12.63;;;4.70;;
15254;SDS011;7730;49.610;11.136;2023-03-21T07:26:51;10.75;;;4.53;;
15254;SDS011;7730;49.610;11.136;2023-03-21T07:29:18;10.88;;;4.35;;
15254;SDS011;7730;49.610;11.136;2023-03-21T07:31:47;11.20;;;4.22;;
15254;SDS011;7730;49.610;11.136;2023-03-21T07:34:14;10.95;;;4.40;;
15254;SDS011;7730;49.610;11.136;2023-03-21T07:36:42;14.52;;;4.68;;
15254;SDS011;7730;49.610;11.136;2023-03-21T07:39:10;10.25;;;4.00;;
15254;SDS011;7730;49.610;11.136;2023-03-21T07:41:37;11.35;;;4.65;;
15254;SDS011;7730;49.610;11.136;2023-03-21T07:44:05;11.32;;;4.40;;
15254;SDS011;7730;49.610;11.136;2023-03-21T07:46:32;10.60;;;4.30;;
15254;SDS011;7730;49.610;11.136;2023-03-21T07:48:59;13.57;;;4.50;;
15254;SDS011;7730;49.610;11.136;2023-03-21T07:51:26;11.82;;;4.60;;
15254;SDS011;7730;49.610;11.136;2023-03-21T07:53:53;11.15;;;4.40;;
15254;SDS011;7730;49.610;11.136;2023-03-21T07:56:20;11.63;;;4.18;;
15254;SDS011;7730;49.610;11.136;2023-03-21T07:58:47;11.23;;;4.80;;
15254;SDS011;7730;49.610;11.136;2023-03-21T08:01:16;11.50;;;4.97;;
15254;SDS011;7730;49.610;11.136;2023-03-21T08:03:43;11.38;;;4.13;;
15254;SDS011;7730;49.610;11.136;2023-03-21T08:06:11;8.95;;;3.47;;
15254;SDS011;7730;49.610;11.136;2023-03-21T08:08:39;11.00;;;4.00;;
15254;SDS011;7730;49.610;11.136;2023-03-21T08:11:06;12.25;;;4.00;;
15254;SDS011;7730;49.610;11.136;2023-03-21T08:13:33;11.38;;;3.90;;
15254;SDS011;7730;49.610;11.136;2023-03-21T08:16:00;10.23;;;4.10;;
15254;SDS011;7730;49.610;11.136;2023-03-21T08:18:28;10.20;;;3.80;;
15254;SDS011;7730;49.610;11.136;2023-03-21T08:20:56;11.23;;;4.10;;
15254;SDS011;7730;49.610;11.136;2023-03-21T08:23:23;10.82;;;3.90;;
15254;SDS011;7730;49.610;11.136;2023-03-21T08:25:51;10.35;;;3.92;;
15254;SDS011;7730;49.610;11.136;2023-03-21T08:28:18;12.40;;;3.97;;
15254;SDS011;7730;49.610;11.136;2023-03-21T08:30:45;9.48;;;3.70;;
15254;SDS011;7730;49.610;11.136;2023-03-21T08:33:12;10.25;;;3.45;;
15254;SDS011;7730;49.610;11.136;2023-03-21T08:35:41;9.23;;;3.60;;
15254;SDS011;7730;49.610;11.136;2023-03-21T08:38:08;10.38;;;3.70;;
15254;SDS011;7730;49.610;11.136;2023-03-21T08:40:35;9.38;;;3.70;;
15254;SDS011;7730;49.610;11.136;2023-03-21T08:43:02;10.15;;;3.60;;
15254;SDS011;7730;49.610;11.136;2023-03-21T08:45:29;12.63;;;4.40;;
15254;SDS011;7730;49.610;11.136;2023-03-21T08:47:56;10.05;;;4.05;;
15254;SDS011;7730;49.610;11.136;2023-03-21T08:50:24;11.85;;;4.00;;
15254;SDS011;7730;49.610;11.136;2023-03-21T08:52:54;11.65;;;3.97;;
15254;SDS011;7730;49.610;11.136;2023-03-21T08:55:22;11.57;;;3.97;;
15254;SDS011;7730;49.610;11.136;2023-03-21T08:57:50;11.23;;;3.92;;
15254;SDS011;7730;49.610;11.136;2023-03-21T09:00:17;10.40;;;3.55;;
15254;SDS011;7730;49.610;11.136;2023-03-21T09:02:46;11.27;;;3.70;;
15254;SDS011;7730;49.610;11.136;2023-03-21T09:05:13;14.75;;;4.10;;
15254;SDS011;7730;49.610;11.136;2023-03-21T09:07:41;11.05;;;3.85;;
15254;SDS011;7730;49.610;11.136;2023-03-21T09:10:10;10.80;;;4.03;;
15254;SDS011;7730;49.610;11.136;2023-03-21T09:12:38;8.73;;;3.65;;
15254;SDS011;7730;49.610;11.136;2023-03-21T09:15:06;12.45;;;4.22;;
15254;SDS011;7730;49.610;11.136;2023-03-21T09:17:33;10.55;;;3.80;;
15254;SDS011;7730;49.610;11.136;2023-03-21T09:20:03;14.68;;;4.30;;
15254;SDS011;7730;49.610;11.136;2023-03-21T09:22:35;10.20;;;3.70;;
15254;SDS011;7730;49.610;11.136;2023-03-21T09:25:02;10.05;;;3.90;;
15254;SDS011;7730;49.610;11.136;2023-03-21T09:27:32;10.43;;;4.10;;
15254;SDS011;7730;49.610;11.136;2023-03-21T09:29:59;12.18;;;4.30;;
15254;SDS011;7730;49.610;11.136;2023-03-21T09:32:27;10.68;;;3.90;;
15254;SDS011;7730;49.610;11.136;2023-03-21T09:34:54;10.90;;;3.65;;
15254;SDS011;7730;49.610;11.136;2023-03-21T09:37:21;11.88;;;3.78;;
15254;SDS011;7730;49.610;11.136;2023-03-21T09:39:48;11.20;;;4.00;;
15254;SDS011;7730;49.610;11.136;2023-03-21T09:42:18;11.15;;;3.97;;
15254;SDS011;7730;49.610;11.136;2023-03-21T09:44:50;11.23;;;4.07;;
15254;SDS011;7730;49.610;11.136;2023-03-21T09:47:20;11.27;;;3.95;;
15254;SDS011;7730;49.610;11.136;2023-03-21T09:49:49;10.98;;;3.90;;
15254;SDS011;7730;49.610;11.136;2023-03-21T09:52:19;9.85;;;3.85;;
15254;SDS011;7730;49.610;11.136;2023-03-21T09:54:48;12.15;;;5.18;;
15254;SDS011;7730;49.610;11.136;2023-03-21T09:57:18;12.25;;;4.15;;
15254;SDS011;7730;49.610;11.136;2023-03-21T09:59:49;9.50;;;3.83;;
15254;SDS011;7730;49.610;11.136;2023-03-21T10:02:27;10.35;;;3.97;;
15254;SDS011;7730;49.610;11.136;2023-03-21T10:04:59;10.63;;;3.90;;
15254;SDS011;7730;49.610;11.136;2023-03-21T10:07:28;12.07;;;4.05;;
15254;SDS011;7730;49.610;11.136;2023-03-21T10:09:55;10.80;;;3.92;;
15254;SDS011;7730;49.610;11.136;2023-03-21T10:12:23;9.30;;;3.33;;
15254;SDS011;7730;49.610;11.136;2023-03-21T10:14:54;8.75;;;3.13;;
15254;SDS011;7730;49.610;11.136;2023-03-21T10:17:25;8.85;;;3.45;;
15254;SDS011;7730;49.610;11.136;2023-03-21T10:19:54;10.88;;;3.20;;
15254;SDS011;7730;49.610;11.136;2023-03-21T10:22:22;12.32;;;3.83;;
15254;SDS011;7730;49.610;11.136;2023-03-21T10:24:49;13.45;;;4.03;;
15254;SDS011;7730;49.610;11.136;2023-03-21T10:27:16;11.65;;;3.90;;
15254;SDS011;7730;49.610;11.136;2023-03-21T10:29:43;10.32;;;3.85;;
15254;SDS011;7730;49.610;11.136;2023-03-21T10:32:12;9.90;;;3.70;;
15254;SDS011;7730;49.610;11.136;2023-03-21T10:34:42;10.35;;;3.80;;
15254;SDS011;7730;49.610;11.136;2023-03-21T10:37:11;11.45;;;4.18;;
15254;SDS011;7730;49.610;11.136;2023-03-21T10:39:39;10.52;;;3.80;;
15254;SDS011;7730;49.610;11.136;2023-03-21T10:42:08;10.82;;;4.18;;
15254;SDS011;7730;49.610;11.136;2023-03-21T10:44:40;8.70;;;3.63;;
15254;SDS011;7730;49.610;11.136;2023-03-21T10:47:16;15.00;;;4.35;;
15254;SDS011;7730;49.610;11.136;2023-03-21T10:49:47;11.05;;;4.28;;
15254;SDS011;7730;49.610;11.136;2023-03-21T10:52:16;10.80;;;4.10;;
15254;SDS011;7730;49.610;11.136;2023-03-21T10:54:44;11.52;;;4.25;;
15254;SDS011;7730;49.610;11.136;2023-03-21T10:57:12;11.13;;;4.10;;
15254;SDS011;7730;49.610;11.136;2023-03-21T10:59:42;9.02;;;3.80;;
15254;SDS011;7730;49.610;11.136;2023-03-21T11:02:14;9.32;;;3.72;;
15254;SDS011;7730;49.610;11.136;2023-03-21T11:04:42;11.93;;;4.97;;
15254;SDS011;7730;49.610;11.136;2023-03-21T11:07:12;12.63;;;3.92;;
15254;SDS011;7730;49.610;11.136;2023-03-21T11:09:44;12.30;;;4.20;;
15254;SDS011;7730;49.610;11.136;2023-03-21T11:12:12;14.98;;;3.60;;
15254;SDS011;7730;49.610;11.136;2023-03-21T11:14:40;9.65;;;3.10;;
15254;SDS011;7730;49.610;11.136;2023-03-21T11:17:20;8.25;;;2.90;;
15254;SDS011;7730;49.610;11.136;2023-03-21T11:19:48;9.52;;;3.35;;
15254;SDS011;7730;49.610;11.136;2023-03-21T11:22:17;8.98;;;2.83;;
15254;SDS011;7730;49.610;11.136;2023-03-21T11:24:48;9.52;;;3.20;;
15254;SDS011;7730;49.610;11.136;2023-03-21T11:27:16;10.48;;;2.78;;
15254;SDS011;7730;49.610;11.136;2023-03-21T11:29:44;12.98;;;3.17;;
15254;SDS011;7730;49.610;11.136;2023-03-21T11:32:12;7.88;;;2.88;;
15254;SDS011;7730;49.610;11.136;2023-03-21T11:34:42;6.53;;;2.65;;
15254;SDS011;7730;49.610;11.136;2023-03-21T11:37:17;8.23;;;2.88;;
15254;SDS011;7730;49.610;11.136;2023-03-21T11:39:45;9.82;;;3.00;;
15254;SDS011;7730;49.610;11.136;2023-03-21T11:44:58;14.40;;;6.50;;
15254;SDS011;7730;49.610;11.136;2023-03-21T11:47:26;7.32;;;2.70;;
15254;SDS011;7730;49.610;11.136;2023-03-21T11:49:53;7.57;;;2.83;;
15254;SDS011;7730;49.610;11.136;2023-03-21T11:52:24;8.38;;;2.90;;
15254;SDS011;7730;49.610;11.136;2023-03-21T11:57:43;14.32;;;3.60;;
15254;SDS011;7730;49.610;11.136;2023-03-21T12:00:14;11.25;;;2.80;;
15254;SDS011;7730;49.610;11.136;2023-03-21T12:02:54;7.88;;;2.88;;
15254;SDS011;7730;49.610;11.136;2023-03-21T12:05:28;10.65;;;3.10;;
15254;SDS011;7730;49.610;11.136;2023-03-21T12:08:00;7.80;;;3.10;;
15254;SDS011;7730;49.610;11.136;2023-03-21T12:10:30;9.13;;;3.15;;
15254;SDS011;7730;49.610;11.136;2023-03-21T12:13:01;9.55;;;3.10;;
15254;SDS011;7730;49.610;11.136;2023-03-21T12:15:32;8.93;;;3.05;;
15254;SDS011;7730;49.610;11.136;2023-03-21T12:18:03;8.23;;;3.10;;
15254;SDS011;7730;49.610;11.136;2023-03-21T12:20:35;9.25;;;3.28;;
15254;SDS011;7730;49.610;11.136;2023-03-21T12:25:50;9.35;;;3.50;;
15254;SDS011;7730;49.610;11.136;2023-03-21T12:28:23;8.02;;;3.28;;
15254;SDS011;7730;49.610;11.136;2023-03-21T12:30:56;10.18;;;3.83;;
15254;SDS011;7730;49.610;11.136;2023-03-21T12:33:27;9.13;;;3.67;;
15254;SDS011;7730;49.610;11.136;2023-03-21T12:36:01;10.02;;;3.60;;
15254;SDS011;7730;49.610;11.136;2023-03-21T12:38:33;9.45;;;3.28;;
15254;SDS011;7730;49.610;11.136;2023-03-21T12:41:13;9.35;;;3.22;;
15254;SDS011;7730;49.610;11.136;2023-03-21T12:43:45;68.55;;;12.50;;
15254;SDS011;7730;49.610;11.136;2023-03-21T12:46:15;8.88;;;3.38;;
15254;SDS011;7730;49.610;11.136;2023-03-21T12:48:45;9.60;;;3.75;;
15254;SDS011;7730;49.610;11.136;2023-03-21T12:51:14;10.50;;;3.60;;
15254;SDS011;7730;49.610;11.136;2023-03-21T12:53:44;10.10;;;3.20;;
15254;SDS011;7730;49.610;11.136;2023-03-21T12:56:16;8.73;;;3.95;;
15254;SDS011;7730;49.610;11.136;2023-03-21T12:58:45;8.43;;;3.60;;
15254;SDS011;7730;49.610;11.136;2023-03-21T13:01:14;10.05;;;3.50;;
15254;SDS011;7730;49.610;11.136;2023-03-21T13:03:43;8.55;;;3.40;;
15254;SDS011;7730;49.610;11.136;2023-03-21T13:06:15;8.00;;;3.58;;
15254;SDS011;7730;49.610;11.136;2023-03-21T13:08:43;9.23;;;3.70;;
15254;SDS011;7730;49.610;11.136;2023-03-21T13:11:13;8.50;;;3.28;;
15254;SDS011;7730;49.610;11.136;2023-03-21T13:13:43;7.95;;;3.50;;
15254;SDS011;7730;49.610;11.136;2023-03-21T13:16:13;9.90;;;3.50;;
15254;SDS011;7730;49.610;11.136;2023-03-21T13:18:47;6.13;;;2.90;;
15254;SDS011;7730;49.610;11.136;2023-03-21T13:21:17;8.82;;;2.90;;
15254;SDS011;7730;49.610;11.136;2023-03-21T13:23:59;9.88;;;3.75;;
15254;SDS011;7730;49.610;11.136;2023-03-21T13:26:33;9.73;;;3.70;;
15254;SDS011;7730;49.610;11.136;2023-03-21T13:29:09;9.43;;;3.53;;
15254;SDS011;7730;49.610;11.136;2023-03-21T13:31:38;8.73;;;3.40;;
15254;SDS011;7730;49.610;11.136;2023-03-21T13:34:09;7.85;;;3.20;;
15254;SDS011;7730;49.610;11.136;2023-03-21T13:36:38;7.60;;;3.40;;
15254;SDS011;7730;49.610;11.136;2023-03-21T13:39:06;10.15;;;3.60;;
15254;SDS011;7730;49.610;11.136;2023-03-21T13:41:43;10.68;;;3.30;;
15254;SDS011;7730;49.610;11.136;2023-03-21T13:44:22;7.43;;;3.00;;
15254;SDS011;7730;49.610;11.136;2023-03-21T13:46:52;10.27;;;3.65;;
15254;SDS011;7730;49.610;11.136;2023-03-21T13:49:27;8.95;;;3.60;;
15254;SDS011;7730;49.610;11.136;2023-03-21T13:51:55;10.10;;;3.50;;
15254;SDS011;7730;49.610;11.136;2023-03-21T13:54:25;9.80;;;3.40;;
15254;SDS011;7730;49.610;11.136;2023-03-21T13:56:55;8.60;;;3.45;;
15254;SDS011;7730;49.610;11.136;2023-03-21T13:59:40;10.25;;;3.40;;
15254;SDS011;7730;49.610;11.136;2023-03-21T14:02:21;9.63;;;3.47;;
15254;SDS011;7730;49.610;11.136;2023-03-21T14:04:52;8.25;;;3.35;;
15254;SDS011;7730;49.610;11.136;2023-03-21T14:07:22;9.50;;;3.28;;
15254;SDS011;7730;49.610;11.136;2023-03-21T14:09:51;8.15;;;3.28;;
15254;SDS011;7730;49.610;11.136;2023-03-21T14:12:19;17.50;;;4.15;;
15254;SDS011;7730;49.610;11.136;2023-03-21T14:14:51;6.40;;;3.40;;
15254;SDS011;7730;49.610;11.136;2023-03-21T14:17:22;8.48;;;3.20;;
15254;SDS011;7730;49.610;11.136;2023-03-21T14:19:50;8.70;;;3.33;;
15254;SDS011;7730;49.610;11.136;2023-03-21T14:22:18;9.15;;;3.20;;
15254;SDS011;7730;49.610;11.136;2023-03-21T14:24:46;7.32;;;2.80;;
15254;SDS011;7730;49.610;11.136;2023-03-21T14:27:13;6.28;;;3.03;;
15254;SDS011;7730;49.610;11.136;2023-03-21T14:29:40;10.18;;;3.65;;
15254;SDS011;7730;49.610;11.136;2023-03-21T14:32:14;9.00;;;3.08;;
15254;SDS011;7730;49.610;11.136;2023-03-21T14:34:43;9.43;;;3.20;;
15254;SDS011;7730;49.610;11.136;2023-03-21T14:37:11;8.73;;;2.85;;
15254;SDS011;7730;49.610;11.136;2023-03-21T14:39:38;7.68;;;2.50;;
15254;SDS011;7730;49.610;11.136;2023-03-21T14:42:05;11.63;;;3.40;;
15254;SDS011;7730;49.610;11.136;2023-03-21T14:44:33;5.85;;;2.53;;
15254;SDS011;7730;49.610;11.136;2023-03-21T14:47:01;8.85;;;2.60;;
15254;SDS011;7730;49.610;11.136;2023-03-21T14:49:30;7.82;;;2.47;;
15254;SDS011;7730;49.610;11.136;2023-03-21T14:51:58;5.80;;;2.35;;
15254;SDS011;7730;49.610;11.136;2023-03-21T14:54:26;9.10;;;2.65;;
15254;SDS011;7730;49.610;11.136;2023-03-21T14:56:55;8.43;;;2.90;;